Flight Track Log - Related Links

Times and Time Zones

All times are in EDT time to prevent confusion due to time zone crossing. See the CSN3864 flight status page for this flight to view local times or setup timezone preferences in your user account.

Time Position Orientation Groundspeed Altitude Reporting Facility
EDT Latitude Longitude Course Direction KTS MPH feet Rate Location/Type
Mon 12:52:00 PM 25.0386 103.0698 116° Southeast  Level Estimated
Mon 12:53:00 PM 24.9931 103.1706 116° Southeast  Level Estimated
Mon 12:54:00 PM 24.9476 103.2713 116° Southeast  Level Estimated
Mon 12:55:00 PM 24.9020 103.3720 117° Southeast  Level Estimated
Mon 12:56:00 PM 24.8563 103.4725 117° Southeast  Level Estimated
Mon 12:57:00 PM 24.8105 103.5730 117° Southeast  Level Estimated
Mon 12:58:00 PM 24.7647 103.6734 117° Southeast  Level Estimated
Mon 12:59:00 PM 24.7188 103.7737 117° Southeast  Level Estimated
Mon 01:00:00 PM 24.6728 103.8740 117° Southeast  Level Estimated
Mon 01:01:00 PM 24.6268 103.9742 117° Southeast  Level Estimated
Mon 01:02:00 PM 24.5807 104.0743 117° Southeast  Level Estimated
Mon 01:03:00 PM 24.5346 104.1743 117° Southeast  Level Estimated
Mon 01:04:00 PM 24.4884 104.2742 117° Southeast  Level Estimated
Mon 01:05:00 PM 24.4421 104.3741 117° Southeast  Level Estimated
Mon 01:06:00 PM 24.3957 104.4740 117° Southeast  Level Estimated
Mon 01:07:00 PM 24.3493 104.5737 117° Southeast  Level Estimated
Mon 01:08:00 PM 24.3028 104.6734 117° Southeast  Level Estimated
Mon 01:09:00 PM 24.2563 104.7729 117° Southeast  Level Estimated
Mon 01:10:00 PM 24.2097 104.8725 117° Southeast  Level Estimated
Mon 01:11:00 PM 24.1630 104.9719 117° Southeast  Level Estimated
Mon 01:12:00 PM 24.1162 105.0713 117° Southeast  Level Estimated
Mon 01:13:00 PM 24.0694 105.1706 117° Southeast  Level Estimated
Mon 01:14:00 PM 24.0226 105.2698 117° Southeast  Level Estimated
Mon 01:15:00 PM 23.9756 105.3690 117° Southeast  Level Estimated
Mon 01:16:00 PM 23.9286 105.4681 117° Southeast  Level Estimated
Mon 01:17:00 PM 23.8816 105.5671 117° Southeast  Level Estimated
Mon 01:18:00 PM 23.8344 105.6660 117° Southeast  Level Estimated
Mon 01:19:00 PM 23.7873 105.7649 118° Southeast  Level Estimated
Mon 01:20:00 PM 23.7400 105.8637 118° Southeast  Level Estimated
Mon 01:21:00 PM 23.6927 105.9624 118° Southeast  Level Estimated
Mon 01:22:00 PM 23.6453 106.0611 118° Southeast  Level Estimated
Mon 01:23:00 PM 23.5979 106.1597 118° Southeast  Level Estimated
Mon 01:24:00 PM 23.5504 106.2582 118° Southeast  Level Estimated
Mon 01:25:00 PM 23.5028 106.3566 118° Southeast  Level Estimated
Mon 01:26:00 PM 23.4552 106.4550 118° Southeast  Level Estimated
Mon 01:27:00 PM 23.4075 106.5533 118° Southeast  Level Estimated
Mon 01:28:00 PM 23.3598 106.6515 118° Southeast  Level Estimated
Mon 01:29:00 PM 23.3120 106.7497 118° Southeast  Level Estimated
Mon 01:30:00 PM 23.2641 106.8478 118° Southeast  Level Estimated
Mon 01:31:00 PM 23.2162 106.9458 118° Southeast  Level Estimated
Mon 01:32:00 PM 23.1682 107.0437 118° Southeast  Level Estimated
Mon 01:33:00 PM 23.1201 107.1416 118° Southeast  Level Estimated
Mon 01:34:00 PM 23.0720 107.2394 118° Southeast  Level Estimated
Mon 01:35:00 PM 23.0238 107.3371 118° Southeast  Level Estimated
Mon 01:36:00 PM 22.9756 107.4348 118° Southeast  Level Estimated
Mon 01:37:00 PM 22.9273 107.5324 118° Southeast  Level Estimated
Mon 01:38:00 PM 22.8771 107.6337 118° Southeast  Level Estimated
Mon 01:39:00 PM 22.8267 107.7350 118° Southeast  Level Estimated
Mon 01:40:00 PM 22.7764 107.8362 118° Southeast  Level Estimated

Login

Don't have an account? Register now (free) for customized features, flight alerts, and more!